Time;durP1;ratioP1;P1;durP2;ratioP2;P2;SDS_P1;SDS_P2;PMS_P1;PMS_P2;Temp;Humidity;BMP_temperature;BMP_pressure;BME280_temperature;BME280_humidity;BME280_pressure;Samples;Min_cycle;Max_cycle;Signal;HPM_P1;HPM_P2
2023/09/22 00:02:22;;;;;;;;;;;;;;;;;;5057894;28;19921;-66
2023/09/22 00:04:48;;;;;;;;;;;;;;;;;;5050867;28;20581;-66
2023/09/22 00:07:14;;;;;;;;;;;;;;;;;;5031897;28;19924;-65
2023/09/22 00:09:40;;;;;;;;;;;;;;;;;;5048809;28;19924;-65
2023/09/22 00:12:08;;;;;;;;;;;;;;;;;;5052462;28;20293;-65
2023/09/22 00:14:34;;;;;;;;;;;;;;;;;;5060692;28;19924;-65
2023/09/22 00:17:00;;;;;;;;;;;;;;;;;;5048312;28;20231;-65
2023/09/22 00:19:26;;;;;;;;;;;;;;;;;;5047582;28;19932;-66
2023/09/22 00:21:54;;;;;;;;;;;;;;;;;;5051555;28;20077;-65
2023/09/22 00:24:21;;;;;;;;;;;;;;;;;;5049003;28;20134;-66
2023/09/22 00:26:47;;;;;;;;;;;;;;;;;;5046797;28;20044;-66
2023/09/22 00:29:13;;;;;;;;;;;;;;;;;;5047465;28;19931;-65
2023/09/22 00:31:39;;;;;;;;;;;;;;;;;;5047056;28;20354;-66
2023/09/22 00:34:05;;;;;;;;;;;;;;;;;;5046409;28;19921;-66
2023/09/22 00:36:32;;;;;;;;;;;;;;;;;;5047151;28;20682;-66
2023/09/22 00:38:58;;;;;;;;;;;;;;;;;;5029163;28;19972;-65
2023/09/22 00:41:24;;;;;;;;;;;;;;;;;;5046131;28;20009;-66
2023/09/22 00:43:50;;;;;;;;;;;;;;;;;;5047058;28;19925;-65
2023/09/22 00:46:16;;;;;;;;;;;;;;;;;;5052974;28;19931;-65
2023/09/22 00:48:42;;;;;;;;;;;;;;;;;;5051017;28;19944;-66
2023/09/22 00:51:08;;;;;;;;;;;;;;;;;;5050492;28;19924;-65
2023/09/22 00:53:34;;;;;;;;;;;;;;;;;;5053162;28;19931;-65
2023/09/22 00:56:01;;;;;;;;;;;;;;;;;;5049704;28;19924;-65
2023/09/22 00:58:27;;;;;;;;;;;;;;;;;;5053344;28;19940;-66
2023/09/22 01:00:53;;;;;;;;;;;;;;;;;;5049747;28;19928;-66
2023/09/22 01:03:19;;;;;;;;;;;;;;;;;;5051926;28;19920;-66
2023/09/22 01:05:45;;;;;;;;;;;;;;;;;;5058988;28;19932;-65
2023/09/22 01:08:11;;;;;;;;;;;;;;;;;;5061068;28;20394;-65
2023/09/22 01:10:37;;;;;;;;;;;;;;;;;;5049018;28;19975;-66
2023/09/22 01:13:04;;;;;;;;;;;;;;;;;;5043699;28;19985;-66
2023/09/22 01:15:30;;;;;;;;;;;;;;;;;;5042610;28;20360;-66
2023/09/22 01:17:56;;;;;;;;;;;;;;;;;;5055644;28;20012;-65
2023/09/22 01:20:22;;;;;;;;;;;;;;;;;;5049149;28;19977;-65
2023/09/22 01:22:48;;;;;;;;;;;;;;;;;;5054918;28;20444;-65
2023/09/22 01:25:14;;;;;;;;;;;;;;;;;;5053925;28;19920;-65
2023/09/22 01:27:40;;;;;;;;;;;;;;;;;;5052004;28;20169;-65
2023/09/22 01:30:06;;;;;;;;;;;;;;;;;;5048296;28;19931;-65
2023/09/22 01:32:32;;;;;;;;;;;;;;;;;;5053815;28;19921;-64
2023/09/22 01:34:58;;;;;;;;;;;;;;;;;;5044100;28;19920;-65
2023/09/22 01:37:25;;;;;;;;;;;;;;;;;;5053183;28;20317;-65
2023/09/22 01:39:51;;;;;;;;;;;;;;;;;;5049798;28;19980;-64
2023/09/22 01:42:17;;;;;;;;;;;;;;;;;;5046603;28;20046;-65
2023/09/22 01:44:43;;;;;;;;;;;;;;;;;;5033703;28;19932;-65
2023/09/22 01:47:09;;;;;;;;;;;;;;;;;;5048806;28;20301;-66
2023/09/22 01:49:35;;;;;;;;;;;;;;;;;;5053379;28;19929;-65
2023/09/22 01:52:01;;;;;;;;;;;;;;;;;;5046246;28;19936;-65
2023/09/22 01:54:27;;;;;;;;;;;;;;;;;;5053162;28;19924;-66
2023/09/22 01:56:52;;;;;;;;;;;;;;;;;;5048418;28;19921;-66
2023/09/22 01:59:18;;;;;;;;;;;;;;;;;;5048143;28;19933;-66
2023/09/22 02:01:45;;;;;;;;;;;;;;;;;;5049089;28;20461;-66
2023/09/22 02:04:11;;;;;;;;;;;;;;;;;;5048530;28;19939;-66
2023/09/22 02:06:37;;;;;;;;;;;;;;;;;;5045345;28;19958;-66
2023/09/22 02:09:04;;;;;;;;;;;;;;;;;;5048363;28;19935;-67
2023/09/22 02:11:30;;;;;;;;;;;;;;;;;;5034246;28;19964;-67
2023/09/22 02:13:57;;;;;;;;;;;;;;;;;;5046650;28;19932;-66
2023/09/22 02:16:23;;;;;;;;;;;;;;;;;;5051167;28;19920;-66
2023/09/22 02:18:50;;;;;;;;;;;;;;;;;;5045140;28;19925;-67
2023/09/22 02:21:17;;;;;;;;;;;;;;;;;;5051136;28;19928;-67
2023/09/22 02:23:43;;;;;;;;;;;;;;;;;;5046403;28;20536;-66
2023/09/22 02:26:09;;;;;;;;;;;;;;;;;;5050299;28;19970;-66
2023/09/22 02:28:35;;;;;;;;;;;;;;;;;;5053887;28;19925;-67
2023/09/22 02:31:01;;;;;;;;;;;;;;;;;;5047881;28;20395;-67
2023/09/22 02:33:26;;;;;;;;;;;;;;;;;;5052275;28;19967;-66
2023/09/22 02:35:52;;;;;;;;;;;;;;;;;;5046841;28;19921;-66
2023/09/22 02:38:18;;;;;;;;;;;;;;;;;;5050798;28;19967;-66
2023/09/22 02:40:45;;;;;;;;;;;;;;;;;;5046568;28;19929;-66
2023/09/22 02:43:11;;;;;;;;;;;;;;;;;;5045291;28;19935;-66
2023/09/22 02:45:37;;;;;;;;;;;;;;;;;;5050036;28;20313;-67
2023/09/22 02:48:03;;;;;;;;;;;;;;;;;;5050170;28;19924;-67
2023/09/22 02:50:29;;;;;;;;;;;;;;;;;;5050305;28;19932;-67
2023/09/22 02:52:55;;;;;;;;;;;;;;;;;;5046797;28;19928;-67
2023/09/22 02:55:20;;;;;;;;;;;;;;;;;;5048508;28;19925;-66
2023/09/22 02:57:47;;;;;;;;;;;;;;;;;;5048325;28;20421;-66
2023/09/22 03:00:20;;;;;;;;;;;;;;;;;;5049955;28;19940;-66
2023/09/22 03:02:46;;;;;;;;;;;;;;;;;;5046927;28;19928;-66
2023/09/22 03:05:15;;;;;;;;;;;;;;;;;;5047789;28;19933;-66
2023/09/22 03:07:41;;;;;;;;;;;;;;;;;;5047401;28;19940;-67
2023/09/22 03:10:07;;;;;;;;;;;;;;;;;;5044822;28;19936;-67
2023/09/22 03:12:33;;;;;;;;;;;;;;;;;;5047333;28;19924;-66
2023/09/22 03:14:59;;;;;;;;;;;;;;;;;;5045894;28;20011;-67
2023/09/22 03:17:25;;;;;;;;;;;;;;;;;;5048429;28;20055;-66
2023/09/22 03:19:51;;;;;;;;;;;;;;;;;;5045820;28;19968;-66
2023/09/22 03:22:17;;;;;;;;;;;;;;;;;;5048240;28;20288;-66
2023/09/22 03:24:43;;;;;;;;;;;;;;;;;;5044057;28;19921;-66
2023/09/22 03:27:09;;;;;;;;;;;;;;;;;;5043822;28;19969;-67
2023/09/22 03:29:35;;;;;;;;;;;;;;;;;;5043893;28;20389;-66
2023/09/22 03:32:01;;;;;;;;;;;;;;;;;;5046823;28;19929;-66
2023/09/22 03:34:27;;;;;;;;;;;;;;;;;;5048383;28;20373;-66
2023/09/22 03:36:53;;;;;;;;;;;;;;;;;;5042303;28;19928;-67
2023/09/22 03:39:21;;;;;;;;;;;;;;;;;;5049379;28;19925;-66
2023/09/22 03:41:52;;;;;;;;;;;;;;;;;;5045773;28;20019;-66
2023/09/22 03:44:17;;;;;;;;;;;;;;;;;;5048298;28;19921;-66
2023/09/22 03:46:44;;;;;;;;;;;;;;;;;;5046774;28;19936;-66
2023/09/22 03:49:10;;;;;;;;;;;;;;;;;;5048893;28;20029;-66
2023/09/22 03:51:35;;;;;;;;;;;;;;;;;;5042157;28;20046;-66
2023/09/22 03:54:01;;;;;;;;;;;;;;;;;;5046020;28;19973;-66
2023/09/22 03:56:27;;;;;;;;;;;;;;;;;;5044893;28;19925;-66
2023/09/22 03:58:53;;;;;;;;;;;;;;;;;;5045936;28;19928;-65
2023/09/22 04:01:19;;;;;;;;;;;;;;;;;;5046489;28;20370;-64
2023/09/22 04:03:45;;;;;;;;;;;;;;;;;;5047687;28;20016;-65
2023/09/22 04:06:11;;;;;;;;;;;;;;;;;;5048987;28;20390;-65
2023/09/22 04:08:37;;;;;;;;;;;;;;;;;;5044875;28;19929;-65
2023/09/22 04:11:02;;;;;;;;;;;;;;;;;;5048783;28;20344;-65
2023/09/22 04:13:28;;;;;;;;;;;;;;;;;;5047632;28;20055;-65
2023/09/22 04:15:54;;;;;;;;;;;;;;;;;;5049386;28;19928;-65
2023/09/22 04:18:21;;;;;;;;;;;;;;;;;;5045971;28;20162;-65
2023/09/22 04:20:47;;;;;;;;;;;;;;;;;;5050092;28;19927;-65
2023/09/22 04:23:13;;;;;;;;;;;;;;;;;;5049369;28;20001;-65
2023/09/22 04:25:39;;;;;;;;;;;;;;;;;;5050650;28;20325;-65
2023/09/22 04:28:09;;;;;;;;;;;;;;;;;;5052094;28;19925;-64
2023/09/22 04:30:35;;;;;;;;;;;;;;;;;;5049680;28;19936;-64
2023/09/22 04:33:01;;;;;;;;;;;;;;;;;;5054786;28;19924;-65
2023/09/22 04:35:27;;;;;;;;;;;;;;;;;;5030740;28;19921;-65
2023/09/22 04:37:53;;;;;;;;;;;;;;;;;;5053235;28;19925;-65
2023/09/22 04:40:29;;;;;;;;;;;;;;;;;;5050591;28;20016;-66
2023/09/22 04:42:55;;;;;;;;;;;;;;;;;;5054221;28;19982;-66
2023/09/22 04:45:24;;;;;;;;;;;;;;;;;;5047317;28;20536;-66
2023/09/22 04:47:53;;;;;;;;;;;;;;;;;;5050607;28;19932;-66
2023/09/22 04:50:19;;;;;;;;;;;;;;;;;;5047073;28;19921;-66
2023/09/22 04:52:45;;;;;;;;;;;;;;;;;;5049808;28;19936;-65
2023/09/22 04:55:11;;;;;;;;;;;;;;;;;;5051488;28;19960;-65
2023/09/22 04:57:38;;;;;;;;;;;;;;;;;;5050706;28;19964;-65
2023/09/22 05:00:12;;;;;;;;;;;;;;;;;;5048058;28;19936;-66
2023/09/22 05:02:38;;;;;;;;;;;;;;;;;;5049310;28;20330;-66
2023/09/22 05:05:04;;;;;;;;;;;;;;;;;;5051874;28;19921;-66
2023/09/22 05:07:30;;;;;;;;;;;;;;;;;;5049744;28;19979;-66
2023/09/22 05:09:59;;;;;;;;;;;;;;;;;;5050751;28;20306;-65
2023/09/22 05:12:25;;;;;;;;;;;;;;;;;;5052272;28;19924;-65
2023/09/22 05:14:50;;;;;;;;;;;;;;;;;;5048011;28;20386;-66
2023/09/22 05:17:16;;;;;;;;;;;;;;;;;;5068462;28;19964;-65
2023/09/22 05:19:42;;;;;;;;;;;;;;;;;;5052055;28;20343;-65
2023/09/22 05:22:08;;;;;;;;;;;;;;;;;;5052486;28;19970;-66
2023/09/22 05:24:34;;;;;;;;;;;;;;;;;;5048297;28;19921;-65
2023/09/22 05:27:00;;;;;;;;;;;;;;;;;;5052374;28;19998;-65
2023/09/22 05:29:26;;;;;;;;;;;;;;;;;;5041546;28;20618;-65
2023/09/22 05:31:53;;;;;;;;;;;;;;;;;;5052487;28;19973;-66
2023/09/22 05:34:19;;;;;;;;;;;;;;;;;;5033685;28;19932;-66
2023/09/22 05:36:46;;;;;;;;;;;;;;;;;;5051883;28;20497;-65
2023/09/22 05:39:12;;;;;;;;;;;;;;;;;;5051533;28;19921;-65
2023/09/22 05:41:38;;;;;;;;;;;;;;;;;;5051214;28;20000;-67
2023/09/22 05:44:04;;;;;;;;;;;;;;;;;;5050891;28;20095;-66
2023/09/22 05:46:31;;;;;;;;;;;;;;;;;;5050301;28;19933;-64
2023/09/22 05:48:57;;;;;;;;;;;;;;;;;;5049652;28;19925;-65
2023/09/22 05:51:23;;;;;;;;;;;;;;;;;;5053671;28;19964;-65
2023/09/22 05:53:52;;;;;;;;;;;;;;;;;;5053488;28;20347;-65
2023/09/22 05:56:18;;;;;;;;;;;;;;;;;;5050467;28;19927;-64
2023/09/22 05:58:44;;;;;;;;;;;;;;;;;;5053274;28;19925;-65
2023/09/22 06:01:12;;;;;;;;;;;;;;;;;;5049699;28;19931;-65
2023/09/22 06:03:38;;;;;;;;;;;;;;;;;;5059713;28;19944;-65
2023/09/22 06:06:04;;;;;;;;;;;;;;;;;;5050546;28;19920;-65
2023/09/22 06:08:30;;;;;;;;;;;;;;;;;;5058706;28;19928;-64
2023/09/22 06:10:56;;;;;;;;;;;;;;;;;;5037180;28;20145;-66
2023/09/22 06:13:22;;;;;;;;;;;;;;;;;;5056235;28;19920;-65
2023/09/22 06:15:48;;;;;;;;;;;;;;;;;;5050822;28;19936;-65
2023/09/22 06:18:16;;;;;;;;;;;;;;;;;;5066482;28;20421;-65
2023/09/22 06:20:41;;;;;;;;;;;;;;;;;;5048757;28;19931;-65
2023/09/22 06:23:08;;;;;;;;;;;;;;;;;;5057798;28;20370;-64
2023/09/22 06:25:34;;;;;;;;;;;;;;;;;;5053726;28;19928;-65
2023/09/22 06:28:00;;;;;;;;;;;;;;;;;;5051083;28;20396;-66
2023/09/22 06:30:26;;;;;;;;;;;;;;;;;;5037845;28;19966;-63
2023/09/22 06:32:52;;;;;;;;;;;;;;;;;;5048951;28;19921;-63
2023/09/22 06:35:18;;;;;;;;;;;;;;;;;;5054474;28;19920;-65
2023/09/22 06:37:44;;;;;;;;;;;;;;;;;;5049066;28;19932;-64
2023/09/22 06:40:15;;;;;;;;;;;;;;;;;;5047154;28;20416;-65
2023/09/22 06:42:41;;;;;;;;;;;;;;;;;;5053844;28;20311;-64
2023/09/22 06:45:09;;;;;;;;;;;;;;;;;;5049208;28;19928;-64
2023/09/22 06:47:35;;;;;;;;;;;;;;;;;;5048826;28;19924;-64
2023/09/22 06:50:05;;;;;;;;;;;;;;;;;;5049833;28;19925;-65
2023/09/22 06:52:31;;;;;;;;;;;;;;;;;;5047929;28;19936;-64
2023/09/22 06:54:57;;;;;;;;;;;;;;;;;;5049541;28;19921;-65
2023/09/22 06:57:23;;;;;;;;;;;;;;;;;;5045096;28;20493;-65
2023/09/22 06:59:49;;;;;;;;;;;;;;;;;;5050413;28;19925;-65
2023/09/22 07:02:15;;;;;;;;;;;;;;;;;;5050232;28;19956;-64
2023/09/22 07:04:40;;;;;;;;;;;;;;;;;;5043769;28;19931;-65
2023/09/22 07:07:06;;;;;;;;;;;;;;;;;;5049490;28;20278;-65
2023/09/22 07:09:32;;;;;;;;;;;;;;;;;;5052227;28;19932;-66
2023/09/22 07:11:58;;;;;;;;;;;;;;;;;;5031244;28;19982;-65
2023/09/22 07:14:24;;;;;;;;;;;;;;;;;;5044451;28;20011;-65
2023/09/22 07:16:50;;;;;;;;;;;;;;;;;;5047586;28;20020;-65
2023/09/22 07:19:16;;;;;;;;;;;;;;;;;;5045460;28;19978;-65
2023/09/22 07:21:42;;;;;;;;;;;;;;;;;;5048671;28;19921;-66
2023/09/22 07:24:08;;;;;;;;;;;;;;;;;;5046363;28;19928;-66
2023/09/22 07:26:34;;;;;;;;;;;;;;;;;;5048150;28;19925;-65
2023/09/22 07:29:00;;;;;;;;;;;;;;;;;;5049060;28;19925;-65
2023/09/22 07:31:30;;;;;;;;;;;;;;;;;;5047373;28;19929;-66
2023/09/22 07:33:56;;;;;;;;;;;;;;;;;;5047189;28;20023;-64
2023/09/22 07:36:22;;;;;;;;;;;;;;;;;;5046728;28;20020;-65
2023/09/22 07:38:48;;;;;;;;;;;;;;;;;;5038098;28;19920;-65
2023/09/22 07:41:14;;;;;;;;;;;;;;;;;;5046274;28;19928;-65
2023/09/22 07:43:40;;;;;;;;;;;;;;;;;;5044409;28;19925;-66
2023/09/22 07:46:06;;;;;;;;;;;;;;;;;;5043187;28;19921;-65
2023/09/22 07:48:32;;;;;;;;;;;;;;;;;;5041153;28;19932;-65
2023/09/22 07:50:59;;;;;;;;;;;;;;;;;;5042106;28;19925;-65
2023/09/22 07:53:25;;;;;;;;;;;;;;;;;;5051835;28;19921;-65
2023/09/22 07:55:51;;;;;;;;;;;;;;;;;;5043733;28;19928;-65
2023/09/22 07:58:17;;;;;;;;;;;;;;;;;;5049424;28;20545;-65
2023/09/22 08:00:46;;;;;;;;;;;;;;;;;;5051108;28;19921;-64
2023/09/22 08:03:12;;;;;;;;;;;;;;;;;;5055944;28;19925;-65
2023/09/22 08:05:39;;;;;;;;;;;;;;;;;;5052071;28;20021;-65
2023/09/22 08:08:05;;;;;;;;;;;;;;;;;;5049809;28;20039;-65
2023/09/22 08:10:31;;;;;;;;;;;;;;;;;;5051672;28;19967;-65
2023/09/22 08:12:57;;;;;;;;;;;;;;;;;;5058373;28;20007;-65
2023/09/22 08:15:23;;;;;;;;;;;;;;;;;;5051439;28;19928;-65
2023/09/22 08:17:49;;;;;;;;;;;;;;;;;;5055333;28;20418;-65
2023/09/22 08:20:15;;;;;;;;;;;;;;;;;;5054185;28;20278;-65
2023/09/22 08:22:42;;;;;;;;;;;;;;;;;;5057280;28;19931;-65
2023/09/22 08:25:08;;;;;;;;;;;;;;;;;;5053361;28;19935;-65
2023/09/22 08:27:34;;;;;;;;;;;;;;;;;;5051595;28;20390;-65
2023/09/22 08:30:02;;;;;;;;;;;;;;;;;;5051426;28;19921;-65
2023/09/22 08:32:28;;;;;;;;;;;;;;;;;;5052100;28;19925;-65
2023/09/22 08:34:54;;;;;;;;;;;;;;;;;;5052050;28;19921;-65
2023/09/22 08:37:21;;;;;;;;;;;;;;;;;;5051286;28;19921;-65
2023/09/22 08:39:47;;;;;;;;;;;;;;;;;;5056074;28;20110;-67
2023/09/22 08:42:13;;;;;;;;;;;;;;;;;;5048360;28;19986;-64
2023/09/22 08:44:39;;;;;;;;;;;;;;;;;;5051851;28;20033;-65
2023/09/22 08:47:05;;;;;;;;;;;;;;;;;;5051114;28;19925;-65
2023/09/22 08:49:31;;;;;;;;;;;;;;;;;;5052682;28;19929;-64
2023/09/22 08:52:00;;;;;;;;;;;;;;;;;;5054202;28;19928;-66
2023/09/22 08:54:26;;;;;;;;;;;;;;;;;;5050924;28;19925;-65
2023/09/22 08:56:52;;;;;;;;;;;;;;;;;;5049952;28;19929;-66
2023/09/22 08:59:18;;;;;;;;;;;;;;;;;;5054676;28;19928;-65
2023/09/22 09:01:44;;;;;;;;;;;;;;;;;;5051939;28;19940;-65
2023/09/22 09:04:10;;;;;;;;;;;;;;;;;;5052398;28;19951;-65
2023/09/22 09:06:36;;;;;;;;;;;;;;;;;;5052864;28;20426;-65
2023/09/22 09:09:02;;;;;;;;;;;;;;;;;;5052888;28;19920;-66
2023/09/22 09:11:27;;;;;;;;;;;;;;;;;;5052047;28;20356;-66
2023/09/22 09:13:54;;;;;;;;;;;;;;;;;;5049911;28;19920;-65
2023/09/22 09:16:20;;;;;;;;;;;;;;;;;;5053086;28;19935;-65
2023/09/22 09:18:46;;;;;;;;;;;;;;;;;;5050934;28;19925;-66
2023/09/22 09:21:14;;;;;;;;;;;;;;;;;;5053879;28;19920;-66
2023/09/22 09:23:40;;;;;;;;;;;;;;;;;;5051000;28;20452;-65
2023/09/22 09:26:06;;;;;;;;;;;;;;;;;;5050589;28;19921;-65
2023/09/22 09:28:32;;;;;;;;;;;;;;;;;;5052583;28;19929;-64
2023/09/22 09:30:58;;;;;;;;;;;;;;;;;;5052384;28;20354;-65
2023/09/22 09:33:24;;;;;;;;;;;;;;;;;;5052799;28;20274;-65
2023/09/22 09:35:50;;;;;;;;;;;;;;;;;;5050244;28;20345;-65
2023/09/22 09:38:16;;;;;;;;;;;;;;;;;;5046699;28;19921;-66
2023/09/22 09:40:42;;;;;;;;;;;;;;;;;;5052961;28;20003;-65
2023/09/22 09:43:10;;;;;;;;;;;;;;;;;;5046521;28;19960;-65
2023/09/22 09:45:36;;;;;;;;;;;;;;;;;;5050168;28;19925;-65
2023/09/22 09:48:02;;;;;;;;;;;;;;;;;;5049551;28;19925;-65
2023/09/22 09:50:28;;;;;;;;;;;;;;;;;;5027172;28;20374;-65
2023/09/22 09:52:59;;;;;;;;;;;;;;;;;;5032490;28;19921;-66
2023/09/22 09:55:26;;;;;;;;;;;;;;;;;;5050820;28;19925;-65
2023/09/22 09:57:52;;;;;;;;;;;;;;;;;;5047088;28;19921;-65
2023/09/22 10:00:21;;;;;;;;;;;;;;;;;;5027902;28;20464;-66
2023/09/22 10:02:47;;;;;;;;;;;;;;;;;;5050467;28;19979;-65
2023/09/22 10:05:13;;;;;;;;;;;;;;;;;;5048897;28;20290;-66
2023/09/22 10:07:39;;;;;;;;;;;;;;;;;;5052029;28;19925;-66
2023/09/22 10:10:06;;;;;;;;;;;;;;;;;;5050382;28;19924;-66
2023/09/22 10:12:32;;;;;;;;;;;;;;;;;;5052668;28;19921;-66
2023/09/22 10:15:01;;;;;;;;;;;;;;;;;;5045899;28;19944;-66
2023/09/22 10:17:28;;;;;;;;;;;;;;;;;;5047820;28;20011;-65
2023/09/22 10:19:54;;;;;;;;;;;;;;;;;;5045991;28;19928;-65
2023/09/22 10:22:20;;;;;;;;;;;;;;;;;;5045891;28;20728;-65
2023/09/22 10:24:46;;;;;;;;;;;;;;;;;;5049343;28;20294;-65
2023/09/22 10:27:13;;;;;;;;;;;;;;;;;;5049508;28;19974;-65
2023/09/22 10:29:41;;;;;;;;;;;;;;;;;;5044999;28;19964;-65
2023/09/22 10:32:07;;;;;;;;;;;;;;;;;;5045067;28;20345;-64
2023/09/22 10:34:32;;;;;;;;;;;;;;;;;;5043060;28;19975;-65
2023/09/22 10:36:58;;;;;;;;;;;;;;;;;;5049643;28;19921;-65
2023/09/22 10:39:24;;;;;;;;;;;;;;;;;;5050205;28;19925;-65
2023/09/22 10:41:50;;;;;;;;;;;;;;;;;;5050204;28;19932;-65
2023/09/22 10:44:16;;;;;;;;;;;;;;;;;;5049629;28;20320;-65
2023/09/22 10:46:42;;;;;;;;;;;;;;;;;;5048691;28;19932;-65
2023/09/22 10:49:08;;;;;;;;;;;;;;;;;;5043779;28;19978;-65
2023/09/22 10:51:34;;;;;;;;;;;;;;;;;;5041099;28;19924;-66
2023/09/22 10:54:00;;;;;;;;;;;;;;;;;;5034465;22;19976;-63
2023/09/22 10:56:26;;;;;;;;;;;;;;;;;;5012771;28;20262;-63
2023/09/22 10:58:53;;;;;;;;;;;;;;;;;;5012708;28;20405;-63
2023/09/22 11:01:21;;;;;;;;;;;;;;;;;;5001736;28;20371;-63
2023/09/22 11:03:47;;;;;;;;;;;;;;;;;;5005129;28;20390;-63
2023/09/22 11:06:15;;;;;;;;;;;;;;;;;;5001839;28;21276;-63
2023/09/22 11:08:41;;;;;;;;;;;;;;;;;;5009533;28;19976;-64
2023/09/22 11:11:07;;;;;;;;;;;;;;;;;;5007758;28;19933;-64
2023/09/22 11:13:33;;;;;;;;;;;;;;;;;;5009424;28;19960;-64
2023/09/22 11:16:04;;;;;;;;;;;;;;;;;;5009209;28;19928;-64
2023/09/22 11:18:33;;;;;;;;;;;;;;;;;;5013188;28;19922;-64
2023/09/22 11:20:59;;;;;;;;;;;;;;;;;;5007474;28;20511;-64
2023/09/22 11:23:25;;;;;;;;;;;;;;;;;;4992786;28;19932;-64
2023/09/22 11:25:51;;;;;;;;;;;;;;;;;;5013821;28;19991;-63
2023/09/22 11:28:17;;;;;;;;;;;;;;;;;;5026057;28;19980;-63
2023/09/22 11:30:43;;;;;;;;;;;;;;;;;;5019212;28;19925;-63
2023/09/22 11:33:09;;;;;;;;;;;;;;;;;;5022067;28;19929;-63
2023/09/22 11:35:39;;;;;;;;;;;;;;;;;;5016050;28;19968;-63
2023/09/22 11:38:05;;;;;;;;;;;;;;;;;;5011523;28;19956;-63
2023/09/22 11:40:31;;;;;;;;;;;;;;;;;;5022333;28;20378;-63
2023/09/22 11:42:57;;;;;;;;;;;;;;;;;;5018452;28;19984;-64
2023/09/22 11:45:23;;;;;;;;;;;;;;;;;;5008251;28;20418;-64
2023/09/22 11:47:49;;;;;;;;;;;;;;;;;;4994331;28;20371;-64
2023/09/22 11:50:15;;;;;;;;;;;;;;;;;;5011678;28;19975;-64
2023/09/22 11:52:41;;;;;;;;;;;;;;;;;;5018093;28;19948;-63
2023/09/22 11:55:07;;;;;;;;;;;;;;;;;;5009353;28;20478;-63
2023/09/22 11:57:33;;;;;;;;;;;;;;;;;;5009194;28;19922;-63
2023/09/22 11:59:59;;;;;;;;;;;;;;;;;;5010916;28;19929;-63
2023/09/22 12:02:26;;;;;;;;;;;;;;;;;;5007300;28;19921;-64
2023/09/22 12:04:52;;;;;;;;;;;;;;;;;;5016808;28;19929;-63
2023/09/22 12:07:19;;;;;;;;;;;;;;;;;;5008100;28;20386;-64
2023/09/22 12:09:45;;;;;;;;;;;;;;;;;;5011130;28;19964;-64
2023/09/22 12:12:12;;;;;;;;;;;;;;;;;;5013667;28;20003;-64
2023/09/22 12:14:38;;;;;;;;;;;;;;;;;;5009283;28;19921;-64
2023/09/22 12:17:04;;;;;;;;;;;;;;;;;;5012388;28;19956;-64
2023/09/22 12:19:30;;;;;;;;;;;;;;;;;;5021705;28;20363;-64
2023/09/22 12:21:56;;;;;;;;;;;;;;;;;;5011770;28;19926;-64
2023/09/22 12:24:22;;;;;;;;;;;;;;;;;;4994266;28;19921;-64
2023/09/22 12:26:48;;;;;;;;;;;;;;;;;;5010119;28;20382;-64
2023/09/22 12:29:16;;;;;;;;;;;;;;;;;;5011687;28;19925;-64
2023/09/22 12:31:41;;;;;;;;;;;;;;;;;;5008930;28;19928;-64
2023/09/22 12:34:07;;;;;;;;;;;;;;;;;;5014665;28;20015;-64
2023/09/22 12:36:33;;;;;;;;;;;;;;;;;;5007341;28;19930;-64
2023/09/22 12:38:59;;;;;;;;;;;;;;;;;;5011524;28;19925;-64
2023/09/22 12:41:25;;;;;;;;;;;;;;;;;;5024908;28;19971;-64
2023/09/22 12:43:51;;;;;;;;;;;;;;;;;;5033524;28;19928;-64
2023/09/22 12:46:17;;;;;;;;;;;;;;;;;;5017999;28;19925;-64
2023/09/22 12:48:43;;;;;;;;;;;;;;;;;;5015223;28;19922;-64
2023/09/22 12:51:11;;;;;;;;;;;;;;;;;;5014775;28;19959;-64
2023/09/22 12:53:37;;;;;;;;;;;;;;;;;;5014265;28;19952;-64
2023/09/22 12:56:02;;;;;;;;;;;;;;;;;;5025567;28;20451;-64
2023/09/22 12:58:28;;;;;;;;;;;;;;;;;;5033006;28;19932;-64
2023/09/22 13:00:54;;;;;;;;;;;;;;;;;;5016429;28;20398;-64
2023/09/22 13:03:21;;;;;;;;;;;;;;;;;;5012038;28;19922;-64
2023/09/22 13:05:46;;;;;;;;;;;;;;;;;;5011566;28;20395;-64
2023/09/22 13:08:13;;;;;;;;;;;;;;;;;;5014643;28;19933;-64
2023/09/22 13:10:38;;;;;;;;;;;;;;;;;;5007089;28;19960;-64
2023/09/22 13:13:04;;;;;;;;;;;;;;;;;;5014418;28;19988;-64
2023/09/22 13:15:30;;;;;;;;;;;;;;;;;;5012792;28;19926;-64
2023/09/22 13:17:57;;;;;;;;;;;;;;;;;;5014549;28;19929;-64
2023/09/22 13:20:23;;;;;;;;;;;;;;;;;;5012325;28;19921;-64
2023/09/22 13:22:49;;;;;;;;;;;;;;;;;;5014480;28;19926;-64
2023/09/22 13:25:15;;;;;;;;;;;;;;;;;;5002206;28;19933;-64
2023/09/22 13:27:41;;;;;;;;;;;;;;;;;;4996520;28;19921;-64
2023/09/22 13:30:07;;;;;;;;;;;;;;;;;;5013997;28;20299;-64
2023/09/22 13:32:34;;;;;;;;;;;;;;;;;;5014117;28;19922;-64
2023/09/22 13:35:00;;;;;;;;;;;;;;;;;;5014041;28;19922;-64
2023/09/22 13:37:25;;;;;;;;;;;;;;;;;;5013902;28;19925;-63
2023/09/22 13:39:52;;;;;;;;;;;;;;;;;;5012526;28;19944;-63
2023/09/22 13:42:18;;;;;;;;;;;;;;;;;;5012283;28;19921;-63
2023/09/22 13:44:44;;;;;;;;;;;;;;;;;;5013623;28;19996;-64
2023/09/22 13:47:10;;;;;;;;;;;;;;;;;;5011527;28;19922;-64
2023/09/22 13:49:37;;;;;;;;;;;;;;;;;;5011693;28;20339;-64
2023/09/22 13:52:03;;;;;;;;;;;;;;;;;;5013169;28;19976;-64
2023/09/22 13:54:29;;;;;;;;;;;;;;;;;;5013609;28;19960;-63
2023/09/22 13:56:55;;;;;;;;;;;;;;;;;;5018662;28;19968;-63
2023/09/22 13:59:21;;;;;;;;;;;;;;;;;;5023958;28;19925;-63
2023/09/22 14:01:47;;;;;;;;;;;;;;;;;;5027724;28;19921;-64
2023/09/22 14:04:13;;;;;;;;;;;;;;;;;;5022225;28;19925;-63
2023/09/22 14:06:39;;;;;;;;;;;;;;;;;;5012398;28;19999;-64
2023/09/22 14:09:05;;;;;;;;;;;;;;;;;;5007375;28;20395;-63
2023/09/22 14:11:31;;;;;;;;;;;;;;;;;;4994652;28;19928;-63
2023/09/22 14:13:57;;;;;;;;;;;;;;;;;;5010554;28;20338;-63
2023/09/22 14:16:23;;;;;;;;;;;;;;;;;;5009141;28;19926;-63
2023/09/22 14:18:49;;;;;;;;;;;;;;;;;;5003005;28;19933;-63
2023/09/22 14:21:15;;;;;;;;;;;;;;;;;;5011764;28;20030;-63
2023/09/22 14:23:41;;;;;;;;;;;;;;;;;;5012533;28;20011;-63
2023/09/22 14:26:07;;;;;;;;;;;;;;;;;;5025522;28;19934;-63
2023/09/22 14:28:34;;;;;;;;;;;;;;;;;;5023582;28;19929;-63
2023/09/22 14:31:00;;;;;;;;;;;;;;;;;;5006063;28;19991;-63
2023/09/22 14:33:25;;;;;;;;;;;;;;;;;;5025901;28;19930;-63
2023/09/22 14:35:52;;;;;;;;;;;;;;;;;;5021787;28;19925;-63
2023/09/22 14:38:18;;;;;;;;;;;;;;;;;;5009120;28;19960;-63
2023/09/22 14:40:44;;;;;;;;;;;;;;;;;;5008782;28;19925;-63
2023/09/22 14:43:10;;;;;;;;;;;;;;;;;;5005328;28;19929;-63
2023/09/22 14:45:36;;;;;;;;;;;;;;;;;;5011736;28;19925;-63
2023/09/22 14:48:04;;;;;;;;;;;;;;;;;;5013372;28;20275;-63
2023/09/22 14:50:32;;;;;;;;;;;;;;;;;;5007803;28;20376;-63
2023/09/22 14:52:58;;;;;;;;;;;;;;;;;;5014995;28;19925;-63
2023/09/22 14:55:23;;;;;;;;;;;;;;;;;;5015564;28;20357;-63
2023/09/22 14:57:50;;;;;;;;;;;;;;;;;;4995728;28;19922;-63
2023/09/22 15:00:16;;;;;;;;;;;;;;;;;;5001201;28;20324;-63
2023/09/22 15:02:43;;;;;;;;;;;;;;;;;;5010889;28;20008;-64
2023/09/22 15:05:09;;;;;;;;;;;;;;;;;;5012208;28;20279;-63
2023/09/22 15:07:35;;;;;;;;;;;;;;;;;;5010698;28;19935;-63
2023/09/22 15:10:01;;;;;;;;;;;;;;;;;;4994285;28;19949;-63
2023/09/22 15:12:27;;;;;;;;;;;;;;;;;;5011719;28;19922;-63
2023/09/22 15:15:00;;;;;;;;;;;;;;;;;;5015184;28;19925;-63
2023/09/22 15:17:27;;;;;;;;;;;;;;;;;;5015736;28;19922;-63
2023/09/22 15:19:52;;;;;;;;;;;;;;;;;;5013061;28;19933;-63
2023/09/22 15:22:19;;;;;;;;;;;;;;;;;;5020737;28;19933;-64
2023/09/22 15:24:45;;;;;;;;;;;;;;;;;;5010798;28;19932;-63
2023/09/22 15:27:11;;;;;;;;;;;;;;;;;;5009470;28;19922;-63
2023/09/22 15:29:36;;;;;;;;;;;;;;;;;;5014140;28;20279;-63
2023/09/22 15:32:03;;;;;;;;;;;;;;;;;;5011361;28;19929;-62
2023/09/22 15:34:31;;;;;;;;;;;;;;;;;;5014771;28;19929;-62
2023/09/22 15:36:56;;;;;;;;;;;;;;;;;;5009553;28;19967;-62
2023/09/22 15:39:23;;;;;;;;;;;;;;;;;;5011773;28;19929;-63
2023/09/22 15:41:49;;;;;;;;;;;;;;;;;;5011950;28;20048;-63
2023/09/22 15:44:16;;;;;;;;;;;;;;;;;;5004255;28;20008;-63
2023/09/22 15:46:42;;;;;;;;;;;;;;;;;;5009061;28;19934;-63
2023/09/22 15:49:09;;;;;;;;;;;;;;;;;;5009942;28;19947;-63
2023/09/22 15:51:36;;;;;;;;;;;;;;;;;;5012003;28;20056;-63
2023/09/22 15:54:02;;;;;;;;;;;;;;;;;;5007290;28;20025;-63
2023/09/22 15:56:28;;;;;;;;;;;;;;;;;;5009738;28;20024;-63
2023/09/22 15:58:54;;;;;;;;;;;;;;;;;;5009777;28;19932;-62
2023/09/22 16:01:20;;;;;;;;;;;;;;;;;;5006914;28;19926;-64
2023/09/22 16:03:46;;;;;;;;;;;;;;;;;;5004565;28;19926;-64
2023/09/22 16:06:13;;;;;;;;;;;;;;;;;;5008896;28;20287;-64
2023/09/22 16:08:40;;;;;;;;;;;;;;;;;;5010787;28;19975;-64
2023/09/22 16:11:06;;;;;;;;;;;;;;;;;;5009826;28;19926;-64
2023/09/22 16:13:32;;;;;;;;;;;;;;;;;;5008853;28;20052;-64
2023/09/22 16:15:57;;;;;;;;;;;;;;;;;;5007531;28;19921;-64
2023/09/22 16:18:23;;;;;;;;;;;;;;;;;;5008715;28;19921;-63
2023/09/22 16:20:49;;;;;;;;;;;;;;;;;;5012617;28;19925;-63
2023/09/22 16:23:15;;;;;;;;;;;;;;;;;;5014155;28;20367;-63
2023/09/22 16:25:41;;;;;;;;;;;;;;;;;;5024235;28;19980;-63
2023/09/22 16:28:07;;;;;;;;;;;;;;;;;;5009196;28;20357;-63
2023/09/22 16:30:33;;;;;;;;;;;;;;;;;;5017988;28;19921;-63
2023/09/22 16:32:59;;;;;;;;;;;;;;;;;;5012675;28;20496;-63
2023/09/22 16:35:25;;;;;;;;;;;;;;;;;;5014655;28;19926;-63
2023/09/22 16:37:50;;;;;;;;;;;;;;;;;;5011500;28;20446;-63
2023/09/22 16:40:16;;;;;;;;;;;;;;;;;;5012132;28;20546;-65